Airfield :
LOGIN :

Register | Disclaimer

   EN    FR    IT 

 










Legend :    VFR   Marginal VFR   IFR   Intensive IFR   Very Intensive IFR
Visi :
Ceiling :
>= 8 km
>= 3000ft
5 to 8 km
1000 to 3000 ft
1500m to 5 km
500 to 1000 ft
800 to 1500m
200 to 500 ft
< 800m
< 200 ft
Symbols :   Thunderstorms  Fog  Heavy snow  Heavy precipitations  Wind > 20 kt
SIGMETs :     Misc.  Thunderstorms  Icing  Turbulence  Mountain Waves  Volcanic Ashes






- Airport Elevation : 267 ft


EGDR - Culdrose Navy

CURRENT METAR :
  • 141520Z AUTO 24012KT 9999 OVC130/// 11/07 Q1024

EXPIRED METARs :
  • 141450Z AUTO 25012KT 9999 OVC130/// 12/07 Q1024
  • 141420Z AUTO 25011KT 9999 SCT130/// 11/05 Q1024
  • 141350Z AUTO 24011KT 9999 OVC130/// 11/05 Q1024
  • 141320Z AUTO 24011KT 9999 BKN130/// 11/07 Q1025
  • 141250Z AUTO 24011KT 9999 SCT130/// 11/06 Q1025
  • 141220Z AUTO 24010KT 9999 FEW170/// 11/07 Q1025
  • 141150Z AUTO 24010KT 9999 // FEW120/// 11/07 Q1025
  • 141120Z AUTO 23010KT 9999 // OVC120/// 11/06 Q1026
  • 141050Z AUTO 23009KT 9999 -RA OVC140/// 11/07 Q1026

Expired Forecast.



MET'MAP, your aeronautical weather chart ! - Copyright ORBIFLY December 2007 - Disclaimer

ORBIFLY MET'MAP TEAM :

Programming & Development : Alexandra Zaïnal
Original concept : Baudouin d'Aumeries
Technical & hardware support : Manuel Goepfert
Assistance : Marc-Olivier Méhu




SOURCES & CREDITS :

   NOAA